sensor_id;sensor_type;location;lat;lon;timestamp;temperature;humidity
1568;DHT22;777;47.156;8.326;2023-08-31T00:01:06;14.00;99.90
1568;DHT22;777;47.156;8.326;2023-08-31T00:03:35;14.00;99.90
1568;DHT22;777;47.156;8.326;2023-08-31T00:06:02;14.00;99.90
1568;DHT22;777;47.156;8.326;2023-08-31T00:08:30;13.90;99.90
1568;DHT22;777;47.156;8.326;2023-08-31T00:10:59;13.80;99.90
1568;DHT22;777;47.156;8.326;2023-08-31T00:13:27;13.70;99.90
1568;DHT22;777;47.156;8.326;2023-08-31T00:15:56;13.60;99.90
1568;DHT22;777;47.156;8.326;2023-08-31T00:18:24;13.50;99.90
1568;DHT22;777;47.156;8.326;2023-08-31T00:20:51;13.60;99.90
1568;DHT22;777;47.156;8.326;2023-08-31T00:23:18;13.50;99.90
1568;DHT22;777;47.156;8.326;2023-08-31T00:25:46;13.50;99.90
1568;DHT22;777;47.156;8.326;2023-08-31T00:28:13;13.50;99.90
1568;DHT22;777;47.156;8.326;2023-08-31T00:30:41;13.50;99.90
1568;DHT22;777;47.156;8.326;2023-08-31T00:33:11;13.50;99.90
1568;DHT22;777;47.156;8.326;2023-08-31T00:35:38;13.40;99.90
1568;DHT22;777;47.156;8.326;2023-08-31T00:38:08;13.50;99.90
1568;DHT22;777;47.156;8.326;2023-08-31T00:40:38;13.50;99.90
1568;DHT22;777;47.156;8.326;2023-08-31T00:43:06;13.50;99.90
1568;DHT22;777;47.156;8.326;2023-08-31T00:45:34;13.50;99.90
1568;DHT22;777;47.156;8.326;2023-08-31T00:48:02;13.30;99.90
1568;DHT22;777;47.156;8.326;2023-08-31T00:50:31;13.30;99.90
1568;DHT22;777;47.156;8.326;2023-08-31T00:52:58;13.30;99.90
1568;DHT22;777;47.156;8.326;2023-08-31T00:55:25;13.40;99.90
1568;DHT22;777;47.156;8.326;2023-08-31T00:57:52;13.40;99.90
1568;DHT22;777;47.156;8.326;2023-08-31T01:00:21;13.40;99.90
1568;DHT22;777;47.156;8.326;2023-08-31T01:02:59;13.40;99.90
1568;DHT22;777;47.156;8.326;2023-08-31T01:05:36;13.50;99.90
1568;DHT22;777;47.156;8.326;2023-08-31T01:08:13;13.50;99.90
1568;DHT22;777;47.156;8.326;2023-08-31T01:10:47;13.50;99.90
1568;DHT22;777;47.156;8.326;2023-08-31T01:13:21;13.40;99.90
1568;DHT22;777;47.156;8.326;2023-08-31T01:15:52;13.40;99.90
1568;DHT22;777;47.156;8.326;2023-08-31T01:18:22;13.40;99.90
1568;DHT22;777;47.156;8.326;2023-08-31T01:21:00;13.40;99.90
1568;DHT22;777;47.156;8.326;2023-08-31T01:26:01;13.50;99.90
1568;DHT22;777;47.156;8.326;2023-08-31T01:28:29;13.50;99.90
1568;DHT22;777;47.156;8.326;2023-08-31T01:30:57;13.50;99.90
1568;DHT22;777;47.156;8.326;2023-08-31T01:37:08;13.60;99.90
1568;DHT22;777;47.156;8.326;2023-08-31T01:39:41;13.60;99.90
1568;DHT22;777;47.156;8.326;2023-08-31T01:42:12;13.70;99.90
1568;DHT22;777;47.156;8.326;2023-08-31T01:44:41;13.70;99.90
1568;DHT22;777;47.156;8.326;2023-08-31T01:47:09;13.80;99.90
1568;DHT22;777;47.156;8.326;2023-08-31T01:49:37;13.80;99.90
1568;DHT22;777;47.156;8.326;2023-08-31T01:52:05;13.80;99.90
1568;DHT22;777;47.156;8.326;2023-08-31T01:54:32;13.90;99.90
1568;DHT22;777;47.156;8.326;2023-08-31T01:56:59;13.90;99.90
1568;DHT22;777;47.156;8.326;2023-08-31T01:59:29;14.00;99.90
1568;DHT22;777;47.156;8.326;2023-08-31T02:01:56;14.00;99.90
1568;DHT22;777;47.156;8.326;2023-08-31T02:04:23;14.00;99.90
1568;DHT22;777;47.156;8.326;2023-08-31T02:06:52;14.00;99.90
1568;DHT22;777;47.156;8.326;2023-08-31T02:09:20;13.90;99.90
1568;DHT22;777;47.156;8.326;2023-08-31T02:11:47;13.90;99.90
1568;DHT22;777;47.156;8.326;2023-08-31T02:14:14;14.00;99.90
1568;DHT22;777;47.156;8.326;2023-08-31T02:16:42;13.90;99.90
1568;DHT22;777;47.156;8.326;2023-08-31T02:19:10;13.90;99.90
1568;DHT22;777;47.156;8.326;2023-08-31T02:21:37;13.90;99.90
1568;DHT22;777;47.156;8.326;2023-08-31T02:24:05;13.80;99.90
1568;DHT22;777;47.156;8.326;2023-08-31T02:26:34;13.70;99.90
1568;DHT22;777;47.156;8.326;2023-08-31T02:29:01;13.60;99.90
1568;DHT22;777;47.156;8.326;2023-08-31T02:31:29;13.50;99.90
1568;DHT22;777;47.156;8.326;2023-08-31T02:33:59;13.50;99.90
1568;DHT22;777;47.156;8.326;2023-08-31T02:36:26;13.40;99.90
1568;DHT22;777;47.156;8.326;2023-08-31T02:38:53;13.40;99.90
1568;DHT22;777;47.156;8.326;2023-08-31T02:41:20;13.50;99.90
1568;DHT22;777;47.156;8.326;2023-08-31T02:43:50;13.50;99.90
1568;DHT22;777;47.156;8.326;2023-08-31T02:46:17;13.50;99.90
1568;DHT22;777;47.156;8.326;2023-08-31T02:48:44;13.50;99.90
1568;DHT22;777;47.156;8.326;2023-08-31T02:51:13;13.50;99.90
1568;DHT22;777;47.156;8.326;2023-08-31T02:53:40;13.50;99.90
1568;DHT22;777;47.156;8.326;2023-08-31T02:56:07;13.40;99.90
1568;DHT22;777;47.156;8.326;2023-08-31T02:58:34;13.40;99.90
1568;DHT22;777;47.156;8.326;2023-08-31T03:01:08;13.40;99.90
1568;DHT22;777;47.156;8.326;2023-08-31T03:03:38;13.50;99.90
1568;DHT22;777;47.156;8.326;2023-08-31T03:06:06;13.50;99.90
1568;DHT22;777;47.156;8.326;2023-08-31T03:08:35;13.50;99.90
1568;DHT22;777;47.156;8.326;2023-08-31T03:11:03;13.50;99.90
1568;DHT22;777;47.156;8.326;2023-08-31T03:13:31;13.50;99.90
1568;DHT22;777;47.156;8.326;2023-08-31T03:15:58;13.50;99.90
1568;DHT22;777;47.156;8.326;2023-08-31T03:18:45;13.50;99.90
1568;DHT22;777;47.156;8.326;2023-08-31T03:21:12;13.30;99.90
1568;DHT22;777;47.156;8.326;2023-08-31T03:23:40;13.30;99.90
1568;DHT22;777;47.156;8.326;2023-08-31T03:26:07;13.20;99.90
1568;DHT22;777;47.156;8.326;2023-08-31T03:28:35;13.30;99.90
1568;DHT22;777;47.156;8.326;2023-08-31T03:31:02;13.30;99.90
1568;DHT22;777;47.156;8.326;2023-08-31T03:33:29;13.20;99.90
1568;DHT22;777;47.156;8.326;2023-08-31T03:36:00;13.20;99.90
1568;DHT22;777;47.156;8.326;2023-08-31T03:38:30;13.20;99.90
1568;DHT22;777;47.156;8.326;2023-08-31T03:41:00;13.30;99.90
1568;DHT22;777;47.156;8.326;2023-08-31T03:43:27;13.20;99.90
1568;DHT22;777;47.156;8.326;2023-08-31T03:45:55;13.10;99.90
1568;DHT22;777;47.156;8.326;2023-08-31T03:48:23;13.00;99.90
1568;DHT22;777;47.156;8.326;2023-08-31T03:50:50;12.90;99.90
1568;DHT22;777;47.156;8.326;2023-08-31T03:53:17;12.90;99.90
1568;DHT22;777;47.156;8.326;2023-08-31T03:55:45;12.80;99.90
1568;DHT22;777;47.156;8.326;2023-08-31T03:58:15;12.70;99.90
1568;DHT22;777;47.156;8.326;2023-08-31T04:00:49;12.70;99.90
1568;DHT22;777;47.156;8.326;2023-08-31T04:03:18;12.80;99.90
1568;DHT22;777;47.156;8.326;2023-08-31T04:05:46;12.80;99.90
1568;DHT22;777;47.156;8.326;2023-08-31T04:08:13;12.80;99.90
1568;DHT22;777;47.156;8.326;2023-08-31T04:10:40;12.80;99.90
1568;DHT22;777;47.156;8.326;2023-08-31T04:13:07;12.70;99.90
1568;DHT22;777;47.156;8.326;2023-08-31T04:15:36;12.80;99.90
1568;DHT22;777;47.156;8.326;2023-08-31T04:18:03;12.80;99.90
1568;DHT22;777;47.156;8.326;2023-08-31T04:20:32;12.80;99.90
1568;DHT22;777;47.156;8.326;2023-08-31T04:22:59;12.80;99.90
1568;DHT22;777;47.156;8.326;2023-08-31T04:25:28;12.80;99.90
1568;DHT22;777;47.156;8.326;2023-08-31T04:27:56;12.70;99.90
1568;DHT22;777;47.156;8.326;2023-08-31T04:30:23;12.70;99.90
1568;DHT22;777;47.156;8.326;2023-08-31T04:32:53;12.70;99.90
1568;DHT22;777;47.156;8.326;2023-08-31T04:35:20;12.70;99.90
1568;DHT22;777;47.156;8.326;2023-08-31T04:37:47;12.70;99.90
1568;DHT22;777;47.156;8.326;2023-08-31T04:40:14;12.80;99.90
1568;DHT22;777;47.156;8.326;2023-08-31T04:42:41;12.90;99.90
1568;DHT22;777;47.156;8.326;2023-08-31T04:45:09;13.00;99.90
1568;DHT22;777;47.156;8.326;2023-08-31T04:47:37;13.00;99.90
1568;DHT22;777;47.156;8.326;2023-08-31T04:50:06;13.10;99.90
1568;DHT22;777;47.156;8.326;2023-08-31T04:52:34;13.10;99.90
1568;DHT22;777;47.156;8.326;2023-08-31T04:55:01;13.10;99.90
1568;DHT22;777;47.156;8.326;2023-08-31T04:57:30;13.20;99.90
1568;DHT22;777;47.156;8.326;2023-08-31T04:59:57;13.20;99.90
1568;DHT22;777;47.156;8.326;2023-08-31T05:02:24;13.20;99.90
1568;DHT22;777;47.156;8.326;2023-08-31T05:04:51;13.10;99.90
1568;DHT22;777;47.156;8.326;2023-08-31T05:07:21;13.20;99.90
1568;DHT22;777;47.156;8.326;2023-08-31T05:09:48;13.30;99.90
1568;DHT22;777;47.156;8.326;2023-08-31T05:12:16;13.40;99.90
1568;DHT22;777;47.156;8.326;2023-08-31T05:14:43;13.50;99.90
1568;DHT22;777;47.156;8.326;2023-08-31T05:17:10;13.50;99.90
1568;DHT22;777;47.156;8.326;2023-08-31T05:19:37;13.60;99.90
1568;DHT22;777;47.156;8.326;2023-08-31T05:22:06;13.60;99.90
1568;DHT22;777;47.156;8.326;2023-08-31T05:24:34;13.50;99.90
1568;DHT22;777;47.156;8.326;2023-08-31T05:27:01;13.60;99.90
1568;DHT22;777;47.156;8.326;2023-08-31T05:29:29;13.60;99.90
1568;DHT22;777;47.156;8.326;2023-08-31T05:31:56;13.60;99.90
1568;DHT22;777;47.156;8.326;2023-08-31T05:34:24;13.70;99.90
1568;DHT22;777;47.156;8.326;2023-08-31T05:36:52;13.70;99.90
1568;DHT22;777;47.156;8.326;2023-08-31T05:39:19;13.80;99.90
1568;DHT22;777;47.156;8.326;2023-08-31T05:41:47;13.70;99.90
1568;DHT22;777;47.156;8.326;2023-08-31T05:44:14;13.80;99.90
1568;DHT22;777;47.156;8.326;2023-08-31T05:46:41;13.80;99.90
1568;DHT22;777;47.156;8.326;2023-08-31T05:49:08;13.80;99.90
1568;DHT22;777;47.156;8.326;2023-08-31T05:51:35;13.80;99.90
1568;DHT22;777;47.156;8.326;2023-08-31T05:54:02;13.80;99.90
1568;DHT22;777;47.156;8.326;2023-08-31T05:56:29;13.80;99.90
1568;DHT22;777;47.156;8.326;2023-08-31T05:58:58;13.90;99.90
1568;DHT22;777;47.156;8.326;2023-08-31T06:01:25;13.90;99.90
1568;DHT22;777;47.156;8.326;2023-08-31T06:03:53;13.90;99.90
1568;DHT22;777;47.156;8.326;2023-08-31T06:06:20;13.90;99.90
1568;DHT22;777;47.156;8.326;2023-08-31T06:08:47;14.00;99.90
1568;DHT22;777;47.156;8.326;2023-08-31T06:11:14;14.00;99.90
1568;DHT22;777;47.156;8.326;2023-08-31T06:13:41;14.10;99.90
1568;DHT22;777;47.156;8.326;2023-08-31T06:16:10;14.00;99.90
1568;DHT22;777;47.156;8.326;2023-08-31T06:18:37;14.00;99.90
1568;DHT22;777;47.156;8.326;2023-08-31T06:21:04;14.00;99.90
1568;DHT22;777;47.156;8.326;2023-08-31T06:23:31;13.90;99.90
1568;DHT22;777;47.156;8.326;2023-08-31T06:25:58;14.00;99.90
1568;DHT22;777;47.156;8.326;2023-08-31T06:28:25;14.10;99.90
1568;DHT22;777;47.156;8.326;2023-08-31T06:30:52;14.10;99.90
1568;DHT22;777;47.156;8.326;2023-08-31T06:33:20;14.20;99.90
1568;DHT22;777;47.156;8.326;2023-08-31T06:35:47;14.20;99.90
1568;DHT22;777;47.156;8.326;2023-08-31T06:38:17;14.30;99.90
1568;DHT22;777;47.156;8.326;2023-08-31T06:40:44;14.30;99.90
1568;DHT22;777;47.156;8.326;2023-08-31T06:43:11;14.30;99.90
1568;DHT22;777;47.156;8.326;2023-08-31T06:45:38;14.40;99.90
1568;DHT22;777;47.156;8.326;2023-08-31T06:48:06;14.40;99.90
1568;DHT22;777;47.156;8.326;2023-08-31T06:50:35;14.50;99.90
1568;DHT22;777;47.156;8.326;2023-08-31T06:53:02;14.50;99.90
1568;DHT22;777;47.156;8.326;2023-08-31T06:55:30;14.50;99.90
1568;DHT22;777;47.156;8.326;2023-08-31T06:58:00;14.50;99.90
1568;DHT22;777;47.156;8.326;2023-08-31T07:00:28;14.40;99.90
1568;DHT22;777;47.156;8.326;2023-08-31T07:02:55;14.50;99.90
1568;DHT22;777;47.156;8.326;2023-08-31T07:05:25;14.50;99.90
1568;DHT22;777;47.156;8.326;2023-08-31T07:07:55;14.60;99.90
1568;DHT22;777;47.156;8.326;2023-08-31T07:10:22;14.70;99.90
1568;DHT22;777;47.156;8.326;2023-08-31T07:12:49;14.90;99.90
1568;DHT22;777;47.156;8.326;2023-08-31T07:15:16;15.10;99.90
1568;DHT22;777;47.156;8.326;2023-08-31T07:17:43;15.30;99.90
1568;DHT22;777;47.156;8.326;2023-08-31T07:20:11;15.30;99.90
1568;DHT22;777;47.156;8.326;2023-08-31T07:22:38;15.50;99.90
1568;DHT22;777;47.156;8.326;2023-08-31T07:25:08;15.50;99.90
1568;DHT22;777;47.156;8.326;2023-08-31T07:27:35;15.40;99.90
1568;DHT22;777;47.156;8.326;2023-08-31T07:30:04;15.40;99.90
1568;DHT22;777;47.156;8.326;2023-08-31T07:32:32;15.50;99.90
1568;DHT22;777;47.156;8.326;2023-08-31T07:34:59;15.70;99.90
1568;DHT22;777;47.156;8.326;2023-08-31T07:37:26;15.70;99.90
1568;DHT22;777;47.156;8.326;2023-08-31T07:39:53;16.00;99.90
1568;DHT22;777;47.156;8.326;2023-08-31T07:42:22;16.20;99.90
1568;DHT22;777;47.156;8.326;2023-08-31T07:44:49;16.10;99.90
1568;DHT22;777;47.156;8.326;2023-08-31T07:47:16;16.00;99.90
1568;DHT22;777;47.156;8.326;2023-08-31T07:49:43;16.00;99.90
1568;DHT22;777;47.156;8.326;2023-08-31T07:52:11;16.20;99.90
1568;DHT22;777;47.156;8.326;2023-08-31T07:54:38;16.70;99.90
1568;DHT22;777;47.156;8.326;2023-08-31T07:57:05;16.80;99.90
1568;DHT22;777;47.156;8.326;2023-08-31T07:59:33;17.00;99.90
1568;DHT22;777;47.156;8.326;2023-08-31T08:02:00;17.60;99.90
1568;DHT22;777;47.156;8.326;2023-08-31T08:04:27;17.90;99.90
1568;DHT22;777;47.156;8.326;2023-08-31T08:06:55;18.80;99.90
1568;DHT22;777;47.156;8.326;2023-08-31T08:09:22;19.60;99.90
1568;DHT22;777;47.156;8.326;2023-08-31T08:11:49;19.80;99.90
1568;DHT22;777;47.156;8.326;2023-08-31T08:14:16;19.70;99.90
1568;DHT22;777;47.156;8.326;2023-08-31T08:16:45;19.60;99.90
1568;DHT22;777;47.156;8.326;2023-08-31T08:19:12;19.70;99.90
1568;DHT22;777;47.156;8.326;2023-08-31T08:21:39;19.60;99.90
1568;DHT22;777;47.156;8.326;2023-08-31T08:24:06;19.40;99.90
1568;DHT22;777;47.156;8.326;2023-08-31T08:26:33;19.00;99.90
1568;DHT22;777;47.156;8.326;2023-08-31T08:29:00;19.10;99.90
1568;DHT22;777;47.156;8.326;2023-08-31T08:31:28;19.10;99.90
1568;DHT22;777;47.156;8.326;2023-08-31T08:33:57;19.10;99.90
1568;DHT22;777;47.156;8.326;2023-08-31T08:36:24;19.30;99.90
1568;DHT22;777;47.156;8.326;2023-08-31T08:38:51;19.60;99.90
1568;DHT22;777;47.156;8.326;2023-08-31T08:41:22;19.60;99.90
1568;DHT22;777;47.156;8.326;2023-08-31T08:43:51;19.40;99.90
1568;DHT22;777;47.156;8.326;2023-08-31T08:46:18;19.10;99.90
1568;DHT22;777;47.156;8.326;2023-08-31T08:48:47;18.60;99.90
1568;DHT22;777;47.156;8.326;2023-08-31T08:51:15;18.40;99.90
1568;DHT22;777;47.156;8.326;2023-08-31T08:53:43;18.10;99.90
1568;DHT22;777;47.156;8.326;2023-08-31T08:56:10;18.00;99.90
1568;DHT22;777;47.156;8.326;2023-08-31T08:58:37;18.10;99.90
1568;DHT22;777;47.156;8.326;2023-08-31T09:01:06;18.10;99.90
1568;DHT22;777;47.156;8.326;2023-08-31T09:03:34;18.30;99.90
1568;DHT22;777;47.156;8.326;2023-08-31T09:06:01;18.40;99.90
1568;DHT22;777;47.156;8.326;2023-08-31T09:08:30;18.50;99.90
1568;DHT22;777;47.156;8.326;2023-08-31T09:10:57;18.60;99.90
1568;DHT22;777;47.156;8.326;2023-08-31T09:13:27;18.60;99.90
1568;DHT22;777;47.156;8.326;2023-08-31T09:15:55;18.70;99.90
1568;DHT22;777;47.156;8.326;2023-08-31T09:18:24;18.80;99.90
1568;DHT22;777;47.156;8.326;2023-08-31T09:20:51;18.90;99.90
1568;DHT22;777;47.156;8.326;2023-08-31T09:23:18;18.70;99.90
1568;DHT22;777;47.156;8.326;2023-08-31T09:25:48;19.00;99.90
1568;DHT22;777;47.156;8.326;2023-08-31T09:28:16;19.00;99.90
1568;DHT22;777;47.156;8.326;2023-08-31T09:30:44;18.80;99.90
1568;DHT22;777;47.156;8.326;2023-08-31T09:33:14;18.90;99.90
1568;DHT22;777;47.156;8.326;2023-08-31T09:35:47;18.70;99.90
1568;DHT22;777;47.156;8.326;2023-08-31T09:38:15;18.80;99.90
1568;DHT22;777;47.156;8.326;2023-08-31T09:40:42;18.80;99.90
1568;DHT22;777;47.156;8.326;2023-08-31T09:43:10;19.10;99.90
1568;DHT22;777;47.156;8.326;2023-08-31T09:45:38;19.30;99.90
1568;DHT22;777;47.156;8.326;2023-08-31T09:48:06;19.60;99.90
1568;DHT22;777;47.156;8.326;2023-08-31T09:50:33;19.80;99.90
1568;DHT22;777;47.156;8.326;2023-08-31T09:53:02;20.30;99.90
1568;DHT22;777;47.156;8.326;2023-08-31T09:55:31;20.50;99.90
1568;DHT22;777;47.156;8.326;2023-08-31T09:58:00;20.60;99.90
1568;DHT22;777;47.156;8.326;2023-08-31T10:00:30;20.80;99.90
1568;DHT22;777;47.156;8.326;2023-08-31T10:03:01;21.00;99.90
1568;DHT22;777;47.156;8.326;2023-08-31T10:05:29;21.20;99.90
1568;DHT22;777;47.156;8.326;2023-08-31T10:07:57;21.20;99.90
1568;DHT22;777;47.156;8.326;2023-08-31T10:10:24;21.20;99.90
1568;DHT22;777;47.156;8.326;2023-08-31T10:12:52;21.00;99.90
1568;DHT22;777;47.156;8.326;2023-08-31T10:15:20;20.70;99.90
1568;DHT22;777;47.156;8.326;2023-08-31T10:17:48;21.00;99.90
1568;DHT22;777;47.156;8.326;2023-08-31T10:20:16;21.50;99.90
1568;DHT22;777;47.156;8.326;2023-08-31T10:22:44;21.60;99.90
1568;DHT22;777;47.156;8.326;2023-08-31T10:25:11;21.30;99.90
1568;DHT22;777;47.156;8.326;2023-08-31T10:27:39;21.10;99.90
1568;DHT22;777;47.156;8.326;2023-08-31T10:30:24;21.20;99.90
1568;DHT22;777;47.156;8.326;2023-08-31T10:33:21;21.40;99.90
1568;DHT22;777;47.156;8.326;2023-08-31T10:35:50;21.20;99.90
1568;DHT22;777;47.156;8.326;2023-08-31T10:38:24;21.70;99.90
1568;DHT22;777;47.156;8.326;2023-08-31T10:41:17;22.20;99.90
1568;DHT22;777;47.156;8.326;2023-08-31T10:43:50;22.30;99.90
1568;DHT22;777;47.156;8.326;2023-08-31T10:46:25;22.50;99.90
1568;DHT22;777;47.156;8.326;2023-08-31T10:48:56;22.50;99.90
1568;DHT22;777;47.156;8.326;2023-08-31T10:51:24;22.70;99.90
1568;DHT22;777;47.156;8.326;2023-08-31T10:53:51;22.90;99.90
1568;DHT22;777;47.156;8.326;2023-08-31T10:56:19;23.10;99.90
1568;DHT22;777;47.156;8.326;2023-08-31T10:58:58;23.00;99.90
1568;DHT22;777;47.156;8.326;2023-08-31T11:04:31;22.10;99.90
1568;DHT22;777;47.156;8.326;2023-08-31T11:07:19;22.10;99.90
1568;DHT22;777;47.156;8.326;2023-08-31T11:09:46;21.60;99.90
1568;DHT22;777;47.156;8.326;2023-08-31T11:12:14;22.30;99.90
1568;DHT22;777;47.156;8.326;2023-08-31T11:14:41;22.60;99.90
1568;DHT22;777;47.156;8.326;2023-08-31T11:17:09;22.70;99.90
1568;DHT22;777;47.156;8.326;2023-08-31T11:19:38;22.90;99.90
1568;DHT22;777;47.156;8.326;2023-08-31T11:22:06;23.10;99.90
1568;DHT22;777;47.156;8.326;2023-08-31T11:24:35;23.00;99.90
1568;DHT22;777;47.156;8.326;2023-08-31T11:27:05;22.90;99.90
1568;DHT22;777;47.156;8.326;2023-08-31T11:29:37;22.40;99.90
1568;DHT22;777;47.156;8.326;2023-08-31T11:32:04;22.60;99.90
1568;DHT22;777;47.156;8.326;2023-08-31T11:34:31;22.40;99.90
1568;DHT22;777;47.156;8.326;2023-08-31T11:37:00;22.40;99.90
1568;DHT22;777;47.156;8.326;2023-08-31T11:39:28;22.60;99.90
1568;DHT22;777;47.156;8.326;2023-08-31T11:41:55;23.00;99.90
1568;DHT22;777;47.156;8.326;2023-08-31T11:44:23;23.30;99.90
1568;DHT22;777;47.156;8.326;2023-08-31T11:46:51;23.10;99.90
1568;DHT22;777;47.156;8.326;2023-08-31T11:49:18;23.30;99.90
1568;DHT22;777;47.156;8.326;2023-08-31T11:51:46;23.50;99.90
1568;DHT22;777;47.156;8.326;2023-08-31T11:54:17;23.70;99.90
1568;DHT22;777;47.156;8.326;2023-08-31T11:56:46;23.60;99.90
1568;DHT22;777;47.156;8.326;2023-08-31T11:59:16;23.30;99.90
1568;DHT22;777;47.156;8.326;2023-08-31T12:01:45;23.20;99.90
1568;DHT22;777;47.156;8.326;2023-08-31T12:04:14;22.60;99.90
1568;DHT22;777;47.156;8.326;2023-08-31T12:06:41;21.30;99.90
1568;DHT22;777;47.156;8.326;2023-08-31T12:09:09;20.70;99.90
1568;DHT22;777;47.156;8.326;2023-08-31T12:11:38;20.90;99.90
1568;DHT22;777;47.156;8.326;2023-08-31T12:14:21;21.10;99.90
1568;DHT22;777;47.156;8.326;2023-08-31T12:16:48;21.50;99.90
1568;DHT22;777;47.156;8.326;2023-08-31T12:19:16;21.50;99.90
1568;DHT22;777;47.156;8.326;2023-08-31T12:21:44;21.70;99.90
1568;DHT22;777;47.156;8.326;2023-08-31T12:24:11;21.60;99.90
1568;DHT22;777;47.156;8.326;2023-08-31T12:26:40;21.30;99.90
1568;DHT22;777;47.156;8.326;2023-08-31T12:29:07;21.30;99.90
1568;DHT22;777;47.156;8.326;2023-08-31T12:31:34;21.30;99.90
1568;DHT22;777;47.156;8.326;2023-08-31T12:34:01;21.30;99.90
1568;DHT22;777;47.156;8.326;2023-08-31T12:36:32;21.30;99.90
1568;DHT22;777;47.156;8.326;2023-08-31T12:38:59;21.40;99.90
1568;DHT22;777;47.156;8.326;2023-08-31T12:41:27;21.30;99.90
1568;DHT22;777;47.156;8.326;2023-08-31T12:43:56;21.50;99.90
1568;DHT22;777;47.156;8.326;2023-08-31T12:46:23;21.60;99.90
1568;DHT22;777;47.156;8.326;2023-08-31T12:48:50;21.70;99.90
1568;DHT22;777;47.156;8.326;2023-08-31T12:51:18;21.80;99.90
1568;DHT22;777;47.156;8.326;2023-08-31T12:53:45;21.80;99.90
1568;DHT22;777;47.156;8.326;2023-08-31T12:56:12;21.90;99.90
1568;DHT22;777;47.156;8.326;2023-08-31T12:58:40;22.00;99.90
1568;DHT22;777;47.156;8.326;2023-08-31T13:01:09;22.20;99.90
1568;DHT22;777;47.156;8.326;2023-08-31T13:03:36;22.50;99.90
1568;DHT22;777;47.156;8.326;2023-08-31T13:06:03;22.80;99.90
1568;DHT22;777;47.156;8.326;2023-08-31T13:08:30;22.70;99.90
1568;DHT22;777;47.156;8.326;2023-08-31T13:10:57;22.70;99.90
1568;DHT22;777;47.156;8.326;2023-08-31T13:13:24;22.60;99.90
1568;DHT22;777;47.156;8.326;2023-08-31T13:15:51;22.60;99.90
1568;DHT22;777;47.156;8.326;2023-08-31T13:18:19;22.40;99.90
1568;DHT22;777;47.156;8.326;2023-08-31T13:20:50;22.70;99.90
1568;DHT22;777;47.156;8.326;2023-08-31T13:23:17;22.70;99.90
1568;DHT22;777;47.156;8.326;2023-08-31T13:25:45;22.40;99.90
1568;DHT22;777;47.156;8.326;2023-08-31T13:28:12;22.00;99.90
1568;DHT22;777;47.156;8.326;2023-08-31T13:30:39;22.10;99.90
1568;DHT22;777;47.156;8.326;2023-08-31T13:33:06;22.20;99.90
1568;DHT22;777;47.156;8.326;2023-08-31T13:35:35;22.10;99.90
1568;DHT22;777;47.156;8.326;2023-08-31T13:38:02;22.20;99.90
1568;DHT22;777;47.156;8.326;2023-08-31T13:40:30;22.10;99.90
1568;DHT22;777;47.156;8.326;2023-08-31T13:42:58;22.40;99.90
1568;DHT22;777;47.156;8.326;2023-08-31T13:45:29;22.60;99.90
1568;DHT22;777;47.156;8.326;2023-08-31T13:47:56;22.60;99.90
1568;DHT22;777;47.156;8.326;2023-08-31T13:50:25;22.30;99.90
1568;DHT22;777;47.156;8.326;2023-08-31T13:52:54;22.20;99.90
1568;DHT22;777;47.156;8.326;2023-08-31T13:55:21;22.30;99.90
1568;DHT22;777;47.156;8.326;2023-08-31T13:57:49;22.50;99.90
1568;DHT22;777;47.156;8.326;2023-08-31T14:00:17;22.60;99.90
1568;DHT22;777;47.156;8.326;2023-08-31T14:02:44;22.40;99.90
1568;DHT22;777;47.156;8.326;2023-08-31T14:05:11;22.50;99.90
1568;DHT22;777;47.156;8.326;2023-08-31T14:07:38;22.60;99.90
1568;DHT22;777;47.156;8.326;2023-08-31T14:10:08;22.30;99.90
1568;DHT22;777;47.156;8.326;2023-08-31T14:12:35;22.00;99.90
1568;DHT22;777;47.156;8.326;2023-08-31T14:15:02;22.10;99.90
1568;DHT22;777;47.156;8.326;2023-08-31T14:17:30;22.40;99.90
1568;DHT22;777;47.156;8.326;2023-08-31T14:19:59;22.80;99.90
1568;DHT22;777;47.156;8.326;2023-08-31T14:22:29;23.40;99.90
1568;DHT22;777;47.156;8.326;2023-08-31T14:24:56;23.40;99.90
1568;DHT22;777;47.156;8.326;2023-08-31T14:27:25;23.00;99.90
1568;DHT22;777;47.156;8.326;2023-08-31T14:29:53;22.40;99.90
1568;DHT22;777;47.156;8.326;2023-08-31T14:32:20;21.90;99.90
1568;DHT22;777;47.156;8.326;2023-08-31T14:34:47;21.80;99.90
1568;DHT22;777;47.156;8.326;2023-08-31T14:37:14;22.20;99.90
1568;DHT22;777;47.156;8.326;2023-08-31T14:39:41;22.40;99.90
1568;DHT22;777;47.156;8.326;2023-08-31T14:42:08;21.60;99.90
1568;DHT22;777;47.156;8.326;2023-08-31T14:44:37;21.40;99.90
1568;DHT22;777;47.156;8.326;2023-08-31T14:47:04;21.30;99.90
1568;DHT22;777;47.156;8.326;2023-08-31T14:49:31;20.90;99.90
1568;DHT22;777;47.156;8.326;2023-08-31T14:51:59;20.70;99.90
1568;DHT22;777;47.156;8.326;2023-08-31T14:54:31;20.70;99.90
1568;DHT22;777;47.156;8.326;2023-08-31T14:56:58;20.80;99.90
1568;DHT22;777;47.156;8.326;2023-08-31T14:59:25;20.30;99.90
1568;DHT22;777;47.156;8.326;2023-08-31T15:01:54;20.30;99.90
1568;DHT22;777;47.156;8.326;2023-08-31T15:04:21;20.20;99.90
1568;DHT22;777;47.156;8.326;2023-08-31T15:06:48;19.90;99.90
1568;DHT22;777;47.156;8.326;2023-08-31T15:09:15;19.80;99.90
1568;DHT22;777;47.156;8.326;2023-08-31T15:11:42;20.00;99.90
1568;DHT22;777;47.156;8.326;2023-08-31T15:14:11;20.00;99.90
1568;DHT22;777;47.156;8.326;2023-08-31T15:16:38;19.90;99.90
1568;DHT22;777;47.156;8.326;2023-08-31T15:19:08;20.00;99.90
1568;DHT22;777;47.156;8.326;2023-08-31T15:21:35;20.30;99.90
1568;DHT22;777;47.156;8.326;2023-08-31T15:24:04;20.70;99.90
1568;DHT22;777;47.156;8.326;2023-08-31T15:26:31;20.70;99.90
1568;DHT22;777;47.156;8.326;2023-08-31T15:28:58;21.20;99.90
1568;DHT22;777;47.156;8.326;2023-08-31T15:31:25;21.80;99.90
1568;DHT22;777;47.156;8.326;2023-08-31T15:33:52;22.50;99.90
1568;DHT22;777;47.156;8.326;2023-08-31T15:36:21;22.30;99.90
1568;DHT22;777;47.156;8.326;2023-08-31T15:38:48;22.90;99.90
1568;DHT22;777;47.156;8.326;2023-08-31T15:41:15;23.00;99.90
1568;DHT22;777;47.156;8.326;2023-08-31T15:43:43;23.40;99.90
1568;DHT22;777;47.156;8.326;2023-08-31T15:46:10;23.40;99.90
1568;DHT22;777;47.156;8.326;2023-08-31T15:48:37;23.40;99.90
1568;DHT22;777;47.156;8.326;2023-08-31T15:51:04;22.70;99.90
1568;DHT22;777;47.156;8.326;2023-08-31T15:53:33;22.20;99.90
1568;DHT22;777;47.156;8.326;2023-08-31T15:56:00;21.80;99.90
1568;DHT22;777;47.156;8.326;2023-08-31T15:58:27;21.70;99.90
1568;DHT22;777;47.156;8.326;2023-08-31T16:00:55;21.50;99.90
1568;DHT22;777;47.156;8.326;2023-08-31T16:03:27;21.20;99.90
1568;DHT22;777;47.156;8.326;2023-08-31T16:05:57;21.40;99.90
1568;DHT22;777;47.156;8.326;2023-08-31T16:08:26;21.60;99.90
1568;DHT22;777;47.156;8.326;2023-08-31T16:10:54;21.60;99.90
1568;DHT22;777;47.156;8.326;2023-08-31T16:13:22;21.70;99.90
1568;DHT22;777;47.156;8.326;2023-08-31T16:15:52;21.90;99.90
1568;DHT22;777;47.156;8.326;2023-08-31T16:18:19;21.20;99.90
1568;DHT22;777;47.156;8.326;2023-08-31T16:20:46;20.70;99.90
1568;DHT22;777;47.156;8.326;2023-08-31T16:23:13;20.30;99.90
1568;DHT22;777;47.156;8.326;2023-08-31T16:25:40;20.70;99.90
1568;DHT22;777;47.156;8.326;2023-08-31T16:28:09;20.30;99.90
1568;DHT22;777;47.156;8.326;2023-08-31T16:30:36;19.80;99.90
1568;DHT22;777;47.156;8.326;2023-08-31T16:33:04;19.50;99.90